Time,TemperatureF,DewpointF,PressureIn,WindDirection,WindDirectionDegrees,WindSpeedMPH,WindSpeedGustMPH,Humidity,HourlyPrecipIn,Conditions,Clouds,dailyrainin,SoftwareType,DateUTC
2013-08-07 00:01:00,70.2,59.1,30.22,South,180,0.7,1.6,68,0.00,,,0.00,pywws,2013-08-07 04:01:00,
2013-08-07 00:02:00,70.2,59.1,30.22,NW,315,0.0,1.6,68,0.00,,,0.00,pywws,2013-08-07 04:02:00,
2013-08-07 00:03:00,70.2,59.1,30.22,SW,225,0.7,2.2,68,0.00,,,0.00,pywws,2013-08-07 04:03:00,
2013-08-07 00:04:00,70.2,59.1,30.22,SW,225,0.0,1.6,68,0.00,,,0.00,pywws,2013-08-07 04:04:00,
2013-08-07 00:05:00,70.2,59.1,30.22,SE,135,2.2,3.8,68,0.00,,,0.00,pywws,2013-08-07 04:05:00,
2013-08-07 00:11:00,70.3,59.7,30.22,East,90,0.7,2.2,69,0.00,,,0.00,pywws,2013-08-07 04:11:00,
2013-08-07 00:16:00,70.3,59.7,30.22,South,180,0.7,2.2,69,0.00,,,0.00,pywws,2013-08-07 04:16:00,
2013-08-07 00:22:00,70.3,59.7,30.22,SE,135,0.0,1.6,69,0.00,,,0.00,pywws,2013-08-07 04:22:00,
2013-08-07 00:28:00,70.3,59.7,30.22,SW,225,0.0,1.6,69,0.00,,,0.00,pywws,2013-08-07 04:28:00,
2013-08-07 00:33:00,70.3,60.1,30.21,South,180,2.2,3.1,70,0.00,,,0.00,pywws,2013-08-07 04:33:00,
2013-08-07 00:39:00,70.5,60.3,30.21,East,90,0.0,0.7,70,0.00,,,0.00,pywws,2013-08-07 04:39:00,
2013-08-07 00:44:00,70.5,60.3,30.21,East,90,1.6,2.2,70,0.00,,,0.00,pywws,2013-08-07 04:44:00,
2013-08-07 00:50:00,70.5,60.3,30.21,West,270,0.7,3.8,70,0.00,,,0.00,pywws,2013-08-07 04:50:00,
2013-08-07 00:56:00,70.5,60.3,30.21,West,270,0.0,1.6,70,0.00,,,0.00,pywws,2013-08-07 04:56:00,
2013-08-07 01:01:00,70.3,60.5,30.22,WNW,292,0.0,0.7,71,0.00,,,0.00,pywws,2013-08-07 05:01:00,
2013-08-07 01:07:00,70.5,60.7,30.22,SE,135,0.7,2.2,71,0.00,,,0.00,pywws,2013-08-07 05:07:00,
2013-08-07 01:12:00,70.3,60.5,30.22,South,180,1.6,3.1,71,0.00,,,0.00,pywws,2013-08-07 05:12:00,
2013-08-07 01:18:00,70.3,60.9,30.22,East,90,0.0,0.7,72,0.00,,,0.00,pywws,2013-08-07 05:18:00,
2013-08-07 01:24:00,70.3,60.9,30.22,South,180,0.0,1.6,72,0.00,,,0.00,pywws,2013-08-07 05:24:00,
2013-08-07 01:29:00,70.3,60.9,30.22,South,180,5.4,7.6,72,0.00,,,0.00,pywws,2013-08-07 05:29:00,
2013-08-07 01:35:00,70.3,60.9,30.22,NE,45,0.7,2.2,72,0.00,,,0.00,pywws,2013-08-07 05:35:00,
2013-08-07 01:40:00,70.3,60.9,30.22,South,180,0.0,0.7,72,0.00,,,0.00,pywws,2013-08-07 05:40:00,
2013-08-07 01:46:00,70.3,60.9,30.22,East,90,0.0,1.6,72,0.00,,,0.00,pywws,2013-08-07 05:46:00,
2013-08-07 01:52:00,70.2,60.7,30.21,ESE,112,0.7,2.2,72,0.00,,,0.00,pywws,2013-08-07 05:52:00,
2013-08-07 01:57:00,70.2,61.1,30.22,SW,225,0.0,0.7,73,0.00,,,0.00,pywws,2013-08-07 05:57:00,
2013-08-07 02:03:00,70.2,61.1,30.22,South,180,0.0,0.0,73,0.00,,,0.00,pywws,2013-08-07 06:03:00,
2013-08-07 02:08:00,70.2,61.1,30.22,East,90,0.0,1.6,73,0.00,,,0.00,pywws,2013-08-07 06:08:00,
2013-08-07 02:14:00,70.0,60.9,30.22,South,180,1.6,3.1,73,0.00,,,0.00,pywws,2013-08-07 06:14:00,
2013-08-07 02:20:00,70.0,60.9,30.22,SW,225,0.7,1.6,73,0.00,,,0.00,pywws,2013-08-07 06:20:00,
2013-08-07 02:25:00,70.0,60.9,30.22,East,90,0.0,0.0,73,0.00,,,0.00,pywws,2013-08-07 06:25:00,
2013-08-07 02:31:00,70.0,60.9,30.22,East,90,0.0,0.0,73,0.00,,,0.00,pywws,2013-08-07 06:31:00,
2013-08-07 02:36:00,69.8,60.7,30.22,NE,45,0.0,0.0,73,0.00,,,0.00,pywws,2013-08-07 06:36:00,
2013-08-07 02:42:00,69.8,61.1,30.22,East,90,0.0,0.0,74,0.00,,,0.00,pywws,2013-08-07 06:42:00,
2013-08-07 02:48:00,69.6,61.3,30.21,SE,135,0.0,0.0,75,0.00,,,0.00,pywws,2013-08-07 06:48:00,
2013-08-07 02:53:00,69.4,61.2,30.21,East,90,0.0,0.0,75,0.00,,,0.00,pywws,2013-08-07 06:53:00,
2013-08-07 03:00:00,69.1,60.8,30.22,East,90,0.0,0.0,75,0.00,,,0.00,pywws,2013-08-07 07:00:00,
2013-08-07 03:06:00,68.9,60.6,30.22,East,90,0.0,0.0,75,0.00,,,0.00,pywws,2013-08-07 07:06:00,
2013-08-07 03:12:00,68.5,60.3,30.22,East,90,0.0,0.0,75,0.00,,,0.00,pywws,2013-08-07 07:12:00,
2013-08-07 03:17:00,68.4,60.5,30.22,East,90,0.0,0.0,76,0.00,,,0.00,pywws,2013-08-07 07:17:00,
2013-08-07 03:23:00,68.2,60.3,30.21,East,90,0.0,0.0,76,0.00,,,0.00,pywws,2013-08-07 07:23:00,
2013-08-07 03:28:00,68.0,60.1,30.21,East,90,0.0,0.0,76,0.00,,,0.00,pywws,2013-08-07 07:28:00,
2013-08-07 03:35:00,67.8,60.7,30.21,WSW,248,0.7,1.6,78,0.00,,,0.00,pywws,2013-08-07 07:35:00,
2013-08-07 03:40:00,67.6,60.9,30.21,SW,225,0.0,0.7,79,0.00,,,0.00,pywws,2013-08-07 07:40:00,
2013-08-07 03:46:00,67.5,60.7,30.22,SW,225,0.0,0.0,79,0.00,,,0.00,pywws,2013-08-07 07:46:00,
2013-08-07 03:52:00,67.3,60.5,30.22,West,270,0.0,0.7,79,0.00,,,0.00,pywws,2013-08-07 07:52:00,
2013-08-07 03:58:00,67.1,60.7,30.22,NW,315,0.0,0.7,80,0.00,,,0.00,pywws,2013-08-07 07:58:00,
2013-08-07 04:04:00,66.9,60.9,30.22,SW,225,0.0,0.0,81,0.00,,,0.00,pywws,2013-08-07 08:04:00,
2013-08-07 04:09:00,66.7,60.7,30.22,SW,225,0.0,1.6,81,0.00,,,0.00,pywws,2013-08-07 08:09:00,
2013-08-07 04:15:00,66.6,60.9,30.22,West,270,0.0,0.7,82,0.00,,,0.00,pywws,2013-08-07 08:15:00,
2013-08-07 04:20:00,66.6,60.9,30.22,NW,315,0.0,1.6,82,0.00,,,0.00,pywws,2013-08-07 08:20:00,
2013-08-07 04:26:00,66.6,61.2,30.22,SW,225,0.0,0.7,83,0.00,,,0.00,pywws,2013-08-07 08:26:00,
2013-08-07 04:32:00,66.6,61.2,30.22,SW,225,0.0,0.0,83,0.00,,,0.00,pywws,2013-08-07 08:32:00,
2013-08-07 04:37:00,66.7,61.4,30.22,SW,225,0.0,0.0,83,0.00,,,0.00,pywws,2013-08-07 08:37:00,
2013-08-07 04:43:00,66.7,61.4,30.22,SW,225,0.0,0.0,83,0.00,,,0.00,pywws,2013-08-07 08:43:00,
2013-08-07 04:50:00,66.9,61.6,30.22,SW,225,0.0,0.0,83,0.00,,,0.00,pywws,2013-08-07 08:50:00,
2013-08-07 04:56:00,66.9,61.9,30.22,SW,225,0.0,0.0,84,0.00,,,0.00,pywws,2013-08-07 08:56:00,
2013-08-07 05:01:00,67.1,62.1,30.22,SW,225,0.0,0.0,84,0.00,,,0.00,pywws,2013-08-07 09:01:00,
2013-08-07 05:07:00,67.1,62.1,30.22,SW,225,0.0,0.0,84,0.00,,,0.00,pywws,2013-08-07 09:07:00,
2013-08-07 05:12:00,67.1,62.1,30.22,SW,225,0.0,0.0,84,0.00,,,0.00,pywws,2013-08-07 09:12:00,
2013-08-07 05:18:00,67.1,62.1,30.22,SW,225,0.0,1.6,84,0.00,,,0.00,pywws,2013-08-07 09:18:00,
2013-08-07 05:24:00,67.1,62.1,30.22,SW,225,0.0,0.0,84,0.00,,,0.00,pywws,2013-08-07 09:24:00,
2013-08-07 05:30:00,67.3,62.3,30.23,SW,225,0.0,0.0,84,0.00,,,0.00,pywws,2013-08-07 09:30:00,
2013-08-07 05:36:00,67.3,62.3,30.23,NW,315,0.7,1.6,84,0.00,,,0.00,pywws,2013-08-07 09:36:00,
2013-08-07 05:41:00,67.3,62.3,30.23,North,0,1.6,3.1,84,0.00,,,0.00,pywws,2013-08-07 09:41:00,
2013-08-07 05:47:00,67.3,62.3,30.23,North,0,0.0,0.0,84,0.00,,,0.00,pywws,2013-08-07 09:47:00,
2013-08-07 05:52:00,67.3,62.3,30.23,North,0,1.6,2.2,84,0.00,,,0.00,pywws,2013-08-07 09:52:00,
2013-08-07 05:58:00,67.3,61.9,30.23,NE,45,1.6,2.2,83,0.00,,,0.00,pywws,2013-08-07 09:58:00,
2013-08-07 06:05:00,67.3,61.9,30.22,North,0,0.0,0.0,83,0.00,,,0.00,pywws,2013-08-07 10:05:00,
2013-08-07 06:11:00,67.3,61.9,30.23,East,90,0.0,0.0,83,0.00,,,0.00,pywws,2013-08-07 10:11:00,
2013-08-07 06:16:00,67.3,62.3,30.23,East,90,0.0,0.0,84,0.00,,,0.00,pywws,2013-08-07 10:16:00,
2013-08-07 06:22:00,67.3,62.3,30.23,East,90,0.0,0.0,84,0.00,,,0.00,pywws,2013-08-07 10:22:00,
2013-08-07 06:28:00,67.3,62.3,30.23,East,90,0.0,0.0,84,0.00,,,0.00,pywws,2013-08-07 10:28:00,
2013-08-07 06:33:00,67.3,62.3,30.23,East,90,0.0,0.0,84,0.00,,,0.00,pywws,2013-08-07 10:33:00,
2013-08-07 06:39:00,67.3,62.3,30.23,North,0,0.7,1.6,84,0.00,,,0.00,pywws,2013-08-07 10:39:00,
2013-08-07 06:44:00,67.5,62.4,30.23,North,0,0.0,0.0,84,0.00,,,0.00,pywws,2013-08-07 10:44:00,
2013-08-07 06:50:00,67.5,62.4,30.23,North,0,0.0,0.0,84,0.00,,,0.00,pywws,2013-08-07 10:50:00,
2013-08-07 06:56:00,67.5,62.4,30.23,North,0,0.0,0.0,84,0.00,,,0.00,pywws,2013-08-07 10:56:00,
2013-08-07 07:01:00,67.6,62.6,30.24,North,0,1.6,1.6,84,0.00,,,0.00,pywws,2013-08-07 11:01:00,
2013-08-07 07:07:00,67.6,62.6,30.24,North,0,0.0,0.7,84,0.00,,,0.00,pywws,2013-08-07 11:07:00,
2013-08-07 07:12:00,67.8,62.8,30.23,NE,45,0.0,0.7,84,0.00,,,0.00,pywws,2013-08-07 11:12:00,
2013-08-07 07:18:00,68.0,62.6,30.23,NE,45,0.0,0.7,83,0.00,,,0.00,pywws,2013-08-07 11:18:00,
2013-08-07 07:24:00,68.2,62.8,30.23,East,90,0.0,0.0,83,0.00,,,0.00,pywws,2013-08-07 11:24:00,
2013-08-07 07:30:00,68.2,62.8,30.23,East,90,0.7,1.6,83,0.00,,,0.00,pywws,2013-08-07 11:30:00,
2013-08-07 07:36:00,68.4,63.0,30.23,SE,135,0.7,2.2,83,0.00,,,0.00,pywws,2013-08-07 11:36:00,
2013-08-07 07:41:00,68.7,63.3,30.23,NE,45,0.7,1.6,83,0.00,,,0.00,pywws,2013-08-07 11:41:00,
2013-08-07 07:47:00,69.1,63.3,30.24,East,90,0.0,0.0,82,0.00,,,0.00,pywws,2013-08-07 11:47:00,
2013-08-07 07:52:00,69.3,63.2,30.24,SE,135,0.0,0.7,81,0.00,,,0.00,pywws,2013-08-07 11:52:00,
2013-08-07 07:58:00,69.4,62.6,30.23,South,180,0.7,2.2,79,0.00,,,0.00,pywws,2013-08-07 11:58:00,
2013-08-07 08:04:00,69.8,62.3,30.23,East,90,0.7,2.2,77,0.00,,,0.00,pywws,2013-08-07 12:04:00,
2013-08-07 08:09:00,70.2,61.9,30.23,SE,135,0.7,1.6,75,0.00,,,0.00,pywws,2013-08-07 12:09:00,
2013-08-07 08:15:00,70.5,61.8,30.23,ESE,112,1.6,3.1,74,0.00,,,0.00,pywws,2013-08-07 12:15:00,
2013-08-07 08:20:00,70.5,61.4,30.23,NE,45,3.8,5.4,73,0.00,,,0.00,pywws,2013-08-07 12:20:00,
2013-08-07 08:26:00,70.7,61.6,30.23,NE,45,3.1,3.8,73,0.00,,,0.00,pywws,2013-08-07 12:26:00,
2013-08-07 08:32:00,70.7,61.6,30.23,East,90,1.6,2.2,73,0.00,,,0.00,pywws,2013-08-07 12:32:00,
2013-08-07 08:37:00,70.9,61.4,30.23,East,90,1.6,3.1,72,0.00,,,0.00,pywws,2013-08-07 12:37:00,
2013-08-07 08:43:00,71.1,61.6,30.22,NE,45,1.6,2.2,72,0.00,,,0.00,pywws,2013-08-07 12:43:00,
2013-08-07 08:48:00,71.2,61.7,30.22,NE,45,0.7,1.6,72,0.00,,,0.00,pywws,2013-08-07 12:48:00,
2013-08-07 08:54:00,71.8,61.9,30.22,East,90,1.6,3.1,71,0.00,,,0.00,pywws,2013-08-07 12:54:00,
2013-08-07 09:00:00,72.5,62.1,30.22,East,90,3.1,6.0,70,0.00,,,0.00,pywws,2013-08-07 13:00:00,
2013-08-07 09:06:00,72.9,62.1,30.22,East,90,1.6,3.1,69,0.00,,,0.00,pywws,2013-08-07 13:06:00,
2013-08-07 09:12:00,73.0,62.3,30.22,SE,135,0.7,3.1,69,0.00,,,0.00,pywws,2013-08-07 13:12:00,
2013-08-07 09:17:00,73.0,61.8,30.22,SE,135,3.1,5.4,68,0.00,,,0.00,pywws,2013-08-07 13:17:00,
2013-08-07 09:23:00,73.4,62.2,30.22,South,180,3.1,6.0,68,0.00,,,0.00,pywws,2013-08-07 13:23:00,
2013-08-07 09:28:00,73.8,62.1,30.22,SE,135,1.6,3.1,67,0.00,,,0.00,pywws,2013-08-07 13:28:00,
2013-08-07 09:34:00,73.9,62.3,30.22,East,90,0.7,2.2,67,0.00,,,0.00,pywws,2013-08-07 13:34:00,
2013-08-07 09:40:00,74.3,62.6,30.22,ESE,112,0.0,1.6,67,0.00,,,0.00,pywws,2013-08-07 13:40:00,
2013-08-07 09:45:00,74.3,62.2,30.22,East,90,1.6,2.2,66,0.00,,,0.00,pywws,2013-08-07 13:45:00,
2013-08-07 09:51:00,74.1,62.0,30.22,North,0,1.6,3.1,66,0.00,,,0.00,pywws,2013-08-07 13:51:00,
2013-08-07 09:56:00,74.3,62.2,30.22,SE,135,1.6,4.5,66,0.00,,,0.00,pywws,2013-08-07 13:56:00,
2013-08-07 10:02:00,74.5,62.4,30.22,East,90,1.6,2.2,66,0.00,,,0.00,pywws,2013-08-07 14:02:00,
2013-08-07 10:08:00,74.5,62.4,30.22,NE,45,3.8,5.4,66,0.00,,,0.00,pywws,2013-08-07 14:08:00,
2013-08-07 10:13:00,74.3,62.2,30.23,East,90,2.2,3.8,66,0.00,,,0.00,pywws,2013-08-07 14:13:00,
2013-08-07 10:19:00,74.1,62.4,30.23,SE,135,2.2,5.4,67,0.00,,,0.00,pywws,2013-08-07 14:19:00,
2013-08-07 10:24:00,73.9,62.3,30.23,North,0,1.6,2.2,67,0.00,,,0.00,pywws,2013-08-07 14:24:00,
2013-08-07 10:30:00,73.8,62.1,30.23,ESE,112,2.2,3.1,67,0.00,,,0.00,pywws,2013-08-07 14:30:00,
2013-08-07 10:36:00,73.4,61.8,30.23,East,90,2.2,3.1,67,0.00,,,0.00,pywws,2013-08-07 14:36:00,
2013-08-07 10:41:00,73.2,61.2,30.23,East,90,3.1,6.0,66,0.00,,,0.00,pywws,2013-08-07 14:41:00,
2013-08-07 10:47:00,73.0,61.0,30.23,SE,135,0.0,0.7,66,0.00,,,0.00,pywws,2013-08-07 14:47:00,
2013-08-07 10:52:00,73.0,61.4,30.23,SE,135,3.1,3.8,67,0.00,,,0.00,pywws,2013-08-07 14:52:00,
2013-08-07 10:58:00,73.4,61.8,30.23,SE,135,0.0,0.7,67,0.00,,,0.00,pywws,2013-08-07 14:58:00,
2013-08-07 11:04:00,73.8,62.1,30.23,SE,135,1.6,2.2,67,0.00,,,0.00,pywws,2013-08-07 15:04:00,
2013-08-07 11:09:00,74.3,63.0,30.23,East,90,0.7,1.6,68,0.00,,,0.00,pywws,2013-08-07 15:09:00,
2013-08-07 11:15:00,74.3,62.6,30.23,SE,135,0.7,2.2,67,0.00,,,0.00,pywws,2013-08-07 15:15:00,
2013-08-07 11:20:00,74.5,62.8,30.22,East,90,0.0,0.7,67,0.00,,,0.00,pywws,2013-08-07 15:20:00,
2013-08-07 11:26:00,74.5,62.8,30.23,SW,225,0.7,2.2,67,0.00,,,0.00,pywws,2013-08-07 15:26:00,
2013-08-07 11:32:00,74.3,62.2,30.23,SE,135,1.6,3.1,66,0.00,,,0.00,pywws,2013-08-07 15:32:00,
2013-08-07 11:37:00,74.1,62.0,30.23,SW,225,1.6,3.8,66,0.00,,,0.00,pywws,2013-08-07 15:37:00,
2013-08-07 11:43:00,73.9,61.8,30.23,South,180,0.0,2.2,66,0.00,,,0.00,pywws,2013-08-07 15:43:00,
2013-08-07 11:48:00,73.8,62.1,30.23,East,90,0.7,1.6,67,0.00,,,0.00,pywws,2013-08-07 15:48:00,
2013-08-07 11:54:00,73.8,62.1,30.23,East,90,0.0,1.6,67,0.00,,,0.00,pywws,2013-08-07 15:54:00,
2013-08-07 12:00:00,74.1,62.4,30.23,East,90,1.6,3.1,67,0.00,,,0.00,pywws,2013-08-07 16:00:00,
2013-08-07 12:06:00,74.3,62.6,30.23,East,90,0.7,1.6,67,0.00,,,0.00,pywws,2013-08-07 16:06:00,
2013-08-07 12:12:00,74.3,62.6,30.22,South,180,2.2,3.1,67,0.00,,,0.00,pywws,2013-08-07 16:12:00,
2013-08-07 12:17:00,74.1,62.4,30.22,NE,45,2.2,3.8,67,0.00,,,0.00,pywws,2013-08-07 16:17:00,
2013-08-07 12:23:00,74.3,63.0,30.22,SE,135,1.6,3.1,68,0.00,,,0.00,pywws,2013-08-07 16:23:00,
2013-08-07 12:28:00,74.7,63.0,30.22,SE,135,2.2,3.8,67,0.00,,,0.00,pywws,2013-08-07 16:28:00,
2013-08-07 12:34:00,74.8,63.1,30.22,South,180,1.6,3.1,67,0.00,,,0.00,pywws,2013-08-07 16:34:00,
2013-08-07 12:40:00,74.8,63.1,30.22,SSE,158,3.1,4.5,67,0.00,,,0.00,pywws,2013-08-07 16:40:00,
2013-08-07 12:45:00,74.7,63.0,30.22,NNE,22,2.2,5.4,67,0.00,,,0.00,pywws,2013-08-07 16:45:00,
2013-08-07 12:51:00,74.3,62.6,30.22,SSW,202,0.0,1.6,67,0.00,,,0.00,pywws,2013-08-07 16:51:00,
2013-08-07 12:56:00,74.1,62.4,30.22,East,90,1.6,2.2,67,0.00,,,0.00,pywws,2013-08-07 16:56:00,
2013-08-07 13:02:00,74.1,62.4,30.22,East,90,0.7,2.2,67,0.00,,,0.00,pywws,2013-08-07 17:02:00,
2013-08-07 13:08:00,74.1,62.4,30.22,East,90,3.8,7.6,67,0.00,,,0.00,pywws,2013-08-07 17:08:00,
2013-08-07 13:13:00,74.3,63.0,30.22,East,90,1.6,3.1,68,0.00,,,0.00,pywws,2013-08-07 17:13:00,
2013-08-07 13:19:00,75.2,63.5,30.22,East,90,2.2,3.8,67,0.00,,,0.00,pywws,2013-08-07 17:19:00,
2013-08-07 13:24:00,75.9,64.2,30.22,SE,135,2.2,5.4,67,0.00,,,0.00,pywws,2013-08-07 17:24:00,
2013-08-07 13:30:00,76.5,64.7,30.22,SE,135,0.7,2.2,67,0.00,,,0.00,pywws,2013-08-07 17:30:00,
2013-08-07 13:36:00,76.8,65.0,30.22,East,90,1.6,2.2,67,0.00,,,0.00,pywws,2013-08-07 17:36:00,
2013-08-07 13:41:00,76.6,64.4,30.22,East,90,6.9,7.6,66,0.00,,,0.00,pywws,2013-08-07 17:41:00,
2013-08-07 13:47:00,76.3,64.1,30.21,East,90,3.8,7.6,66,0.00,,,0.00,pywws,2013-08-07 17:47:00,
2013-08-07 13:52:00,76.3,64.5,30.21,East,90,1.6,3.1,67,0.00,,,0.00,pywws,2013-08-07 17:52:00,
2013-08-07 13:58:00,76.3,64.1,30.21,NE,45,1.6,2.2,66,0.00,,,0.00,pywws,2013-08-07 17:58:00,
2013-08-07 14:04:00,75.9,63.7,30.21,East,90,2.2,4.5,66,0.00,,,0.00,pywws,2013-08-07 18:04:00,
2013-08-07 14:09:00,75.6,63.4,30.20,SE,135,0.7,1.6,66,0.00,,,0.00,pywws,2013-08-07 18:09:00,
2013-08-07 14:15:00,75.7,64.0,30.20,East,90,3.8,4.5,67,0.00,,,0.00,pywws,2013-08-07 18:15:00,
2013-08-07 14:20:00,76.1,63.9,30.20,ESE,112,0.7,1.6,66,0.00,,,0.00,pywws,2013-08-07 18:20:00,
2013-08-07 14:26:00,76.3,64.5,30.20,NE,45,2.2,3.8,67,0.00,,,0.00,pywws,2013-08-07 18:26:00,
2013-08-07 14:32:00,76.6,64.8,30.20,East,90,1.6,3.1,67,0.00,,,0.00,pywws,2013-08-07 18:32:00,
2013-08-07 14:37:00,77.0,64.3,30.20,ESE,112,0.7,2.2,65,0.00,,,0.00,pywws,2013-08-07 18:37:00,
2013-08-07 14:43:00,77.2,64.0,30.20,SE,135,2.2,6.0,64,0.00,,,0.00,pywws,2013-08-07 18:43:00,
2013-08-07 14:48:00,77.5,64.4,30.20,South,180,1.6,3.1,64,0.00,,,0.00,pywws,2013-08-07 18:48:00,
2013-08-07 14:54:00,77.9,64.3,30.19,East,90,3.1,5.4,63,0.00,,,0.00,pywws,2013-08-07 18:54:00,
2013-08-07 15:00:00,78.4,64.8,30.19,NW,315,0.7,1.6,63,0.00,,,0.00,pywws,2013-08-07 19:00:00,
2013-08-07 15:06:00,79.2,65.0,30.19,SE,135,2.2,3.8,62,0.00,,,0.00,pywws,2013-08-07 19:06:00,
2013-08-07 15:12:00,80.2,64.6,30.19,SW,225,3.8,7.6,59,0.00,,,0.00,pywws,2013-08-07 19:12:00,
2013-08-07 15:17:00,80.2,64.1,30.19,East,90,5.4,9.8,58,0.00,,,0.00,pywws,2013-08-07 19:17:00,
2013-08-07 15:23:00,79.7,63.1,30.19,East,90,3.1,4.5,57,0.00,,,0.00,pywws,2013-08-07 19:23:00,
2013-08-07 15:28:00,79.2,63.1,30.19,WSW,248,0.7,1.6,58,0.00,,,0.00,pywws,2013-08-07 19:28:00,
2013-08-07 15:34:00,78.8,63.7,30.19,East,90,3.1,8.3,60,0.00,,,0.00,pywws,2013-08-07 19:34:00,
2013-08-07 15:40:00,78.6,64.5,30.19,East,90,1.6,3.8,62,0.00,,,0.00,pywws,2013-08-07 19:40:00,
2013-08-07 15:45:00,78.1,64.0,30.18,East,90,3.8,7.6,62,0.00,,,0.00,pywws,2013-08-07 19:45:00,
2013-08-07 15:51:00,77.7,63.6,30.19,NW,315,5.4,7.6,62,0.00,,,0.00,pywws,2013-08-07 19:51:00,
2013-08-07 15:56:00,77.5,63.9,30.19,SW,225,4.5,6.0,63,0.00,,,0.00,pywws,2013-08-07 19:56:00,
2013-08-07 16:02:00,77.2,63.6,30.19,SE,135,3.1,5.4,63,0.00,,,0.00,pywws,2013-08-07 20:02:00,
2013-08-07 16:08:00,76.8,63.7,30.19,East,90,2.2,3.8,64,0.00,,,0.00,pywws,2013-08-07 20:08:00,
2013-08-07 16:13:00,76.5,63.4,30.19,SE,135,2.2,3.8,64,0.00,,,0.00,pywws,2013-08-07 20:13:00,
2013-08-07 16:19:00,76.1,63.5,30.18,East,90,4.5,7.6,65,0.00,,,0.00,pywws,2013-08-07 20:19:00,
2013-08-07 16:24:00,75.9,63.3,30.18,East,90,6.0,7.6,65,0.00,,,0.00,pywws,2013-08-07 20:24:00,
2013-08-07 16:30:00,75.9,63.3,30.18,East,90,2.2,4.5,65,0.00,,,0.00,pywws,2013-08-07 20:30:00,
2013-08-07 16:36:00,76.1,63.9,30.18,SE,135,2.2,3.8,66,0.00,,,0.00,pywws,2013-08-07 20:36:00,
2013-08-07 16:41:00,76.1,64.3,30.18,South,180,2.2,3.1,67,0.00,,,0.00,pywws,2013-08-07 20:41:00,
2013-08-07 16:47:00,76.3,64.1,30.18,SE,135,3.1,6.0,66,0.00,,,0.00,pywws,2013-08-07 20:47:00,
2013-08-07 16:52:00,76.3,64.5,30.17,East,90,3.1,4.5,67,0.00,,,0.00,pywws,2013-08-07 20:52:00,
2013-08-07 16:58:00,76.3,64.5,30.17,East,90,4.5,7.6,67,0.00,,,0.00,pywws,2013-08-07 20:58:00,
2013-08-07 17:04:00,76.1,64.3,30.18,East,90,7.6,11.4,67,0.00,,,0.00,pywws,2013-08-07 21:04:00,
2013-08-07 17:09:00,75.9,64.2,30.18,East,90,1.6,5.4,67,0.00,,,0.00,pywws,2013-08-07 21:09:00,
2013-08-07 17:15:00,75.6,63.8,30.17,SE,135,3.1,4.5,67,0.00,,,0.00,pywws,2013-08-07 21:15:00,
2013-08-07 17:20:00,75.2,63.9,30.17,ESE,112,4.5,6.9,68,0.00,,,0.00,pywws,2013-08-07 21:20:00,
2013-08-07 17:26:00,75.0,64.1,30.17,East,90,3.8,7.6,69,0.00,,,0.00,pywws,2013-08-07 21:26:00,
2013-08-07 17:32:00,75.0,64.1,30.17,East,90,2.2,3.1,69,0.00,,,0.00,pywws,2013-08-07 21:32:00,
2013-08-07 17:37:00,75.0,64.6,30.17,East,90,1.6,2.2,70,0.00,,,0.00,pywws,2013-08-07 21:37:00,
2013-08-07 17:43:00,75.2,64.3,30.17,SE,135,3.1,4.5,69,0.00,,,0.00,pywws,2013-08-07 21:43:00,
2013-08-07 17:48:00,75.2,64.7,30.16,NE,45,0.7,3.1,70,0.00,,,0.00,pywws,2013-08-07 21:48:00,
2013-08-07 17:54:00,75.2,64.7,30.17,East,90,0.7,1.6,70,0.00,,,0.00,pywws,2013-08-07 21:54:00,
2013-08-07 18:00:00,74.8,64.8,30.17,SE,135,2.2,3.8,71,0.00,,,0.00,pywws,2013-08-07 22:00:00,
2013-08-07 18:06:00,74.7,64.2,30.17,SE,135,1.6,3.1,70,0.00,,,0.00,pywws,2013-08-07 22:06:00,
2013-08-07 18:12:00,74.5,64.4,30.17,SE,135,5.4,9.2,71,0.00,,,0.00,pywws,2013-08-07 22:12:00,
2013-08-07 18:17:00,74.5,64.4,30.17,SE,135,3.8,6.0,71,0.00,,,0.00,pywws,2013-08-07 22:17:00,
2013-08-07 18:23:00,74.5,64.8,30.17,SSE,158,2.2,3.1,72,0.00,,,0.00,pywws,2013-08-07 22:23:00,
2013-08-07 18:28:00,74.3,64.7,30.16,SE,135,3.1,5.4,72,0.00,,,0.00,pywws,2013-08-07 22:28:00,
2013-08-07 18:34:00,74.3,65.1,30.16,East,90,2.2,4.5,73,0.00,,,0.00,pywws,2013-08-07 22:34:00,
2013-08-07 18:40:00,74.1,65.3,30.16,East,90,1.6,3.1,74,0.00,,,0.00,pywws,2013-08-07 22:40:00,
2013-08-07 18:45:00,74.1,65.3,30.16,South,180,3.8,6.9,74,0.00,,,0.00,pywws,2013-08-07 22:45:00,
2013-08-07 18:51:00,73.9,65.5,30.16,SE,135,3.1,4.5,75,0.00,,,0.00,pywws,2013-08-07 22:51:00,
2013-08-07 18:56:00,73.9,65.5,30.16,East,90,2.2,3.1,75,0.00,,,0.00,pywws,2013-08-07 22:56:00,
2013-08-07 19:02:00,73.9,65.5,30.17,SW,225,0.7,2.2,75,0.00,,,0.00,pywws,2013-08-07 23:02:00,
2013-08-07 19:08:00,73.9,65.5,30.16,East,90,1.6,2.2,75,0.00,,,0.00,pywws,2013-08-07 23:08:00,
2013-08-07 19:13:00,73.8,65.3,30.16,East,90,4.5,6.9,75,0.00,,,0.00,pywws,2013-08-07 23:13:00,
2013-08-07 19:19:00,73.8,65.3,30.16,NE,45,2.2,5.4,75,0.00,,,0.00,pywws,2013-08-07 23:19:00,
2013-08-07 19:24:00,73.6,65.2,30.16,South,180,1.6,3.1,75,0.00,,,0.00,pywws,2013-08-07 23:24:00,
2013-08-07 19:30:00,73.4,65.4,30.16,NW,315,1.6,2.2,76,0.00,,,0.00,pywws,2013-08-07 23:30:00,
2013-08-07 19:36:00,73.4,65.4,30.16,East,90,3.1,6.0,76,0.00,,,0.00,pywws,2013-08-07 23:36:00,
2013-08-07 19:40:00,73.2,65.2,30.16,NW,315,3.1,6.9,76,0.00,,,0.00,pywws,2013-08-07 23:40:00,
2013-08-07 19:46:00,73.2,65.2,30.16,SSE,158,1.6,2.2,76,0.00,,,0.00,pywws,2013-08-07 23:46:00,
2013-08-07 19:52:00,73.2,65.2,30.16,SSE,158,0.7,1.6,76,0.00,,,0.00,pywws,2013-08-07 23:52:00,
2013-08-07 19:57:00,73.2,65.2,30.16,North,0,0.7,2.2,76,0.00,,,0.00,pywws,2013-08-07 23:57:00,
2013-08-07 20:03:00,73.2,65.2,30.16,NE,45,2.2,3.8,76,0.00,,,0.00,pywws,2013-08-08 00:03:00,
2013-08-07 20:08:00,73.2,65.2,30.16,SE,135,2.2,6.0,76,0.00,,,0.00,pywws,2013-08-08 00:08:00,
2013-08-07 20:14:00,73.2,65.6,30.16,NE,45,2.2,6.0,77,0.00,,,0.00,pywws,2013-08-08 00:14:00,
2013-08-07 20:20:00,73.2,65.6,30.16,NE,45,0.0,0.7,77,0.00,,,0.00,pywws,2013-08-08 00:20:00,
2013-08-07 20:25:00,73.2,65.6,30.16,SW,225,0.7,2.2,77,0.00,,,0.00,pywws,2013-08-08 00:25:00,
2013-08-07 20:31:00,73.2,65.9,30.16,SE,135,3.1,5.4,78,0.00,,,0.00,pywws,2013-08-08 00:31:00,
2013-08-07 20:36:00,73.0,65.8,30.16,SE,135,1.6,3.1,78,0.00,,,0.00,pywws,2013-08-08 00:36:00,
2013-08-07 20:42:00,73.0,65.8,30.16,NE,45,0.0,0.7,78,0.00,,,0.00,pywws,2013-08-08 00:42:00,
2013-08-07 20:48:00,73.0,65.8,30.16,SW,225,3.8,5.4,78,0.00,,,0.00,pywws,2013-08-08 00:48:00,
2013-08-07 20:53:00,73.0,65.8,30.17,SSW,202,1.6,3.1,78,0.00,,,0.00,pywws,2013-08-08 00:53:00,
2013-08-07 20:59:00,72.9,65.6,30.17,SSE,158,1.6,3.8,78,0.00,,,0.00,pywws,2013-08-08 00:59:00,
2013-08-07 21:04:00,72.9,66.0,30.16,SW,225,0.7,3.1,79,0.00,,,0.00,pywws,2013-08-08 01:04:00,
2013-08-07 21:07:00,72.9,66.0,30.16,SW,225,1.6,3.8,79,0.00,,,0.00,pywws,2013-08-08 01:07:00,
2013-08-07 21:12:00,72.9,66.0,30.17,SW,225,1.6,3.8,79,0.00,,,0.00,pywws,2013-08-08 01:12:00,
2013-08-07 21:18:00,72.9,66.0,30.17,East,90,0.7,2.2,79,0.00,,,0.00,pywws,2013-08-08 01:18:00,
2013-08-07 21:24:00,72.9,66.0,30.17,South,180,1.6,2.2,79,0.00,,,0.00,pywws,2013-08-08 01:24:00,
2013-08-07 21:29:00,72.9,66.0,30.17,SE,135,0.7,3.1,79,0.00,,,0.00,pywws,2013-08-08 01:29:00,
2013-08-07 21:35:00,72.7,66.1,30.17,SE,135,1.6,3.1,80,0.00,,,0.00,pywws,2013-08-08 01:35:00,
2013-08-07 21:40:00,72.7,66.1,30.17,East,90,2.2,3.8,80,0.00,,,0.00,pywws,2013-08-08 01:40:00,
2013-08-07 21:46:00,72.7,66.1,30.18,East,90,3.1,6.9,80,0.00,,,0.00,pywws,2013-08-08 01:46:00,
2013-08-07 21:52:00,72.5,66.3,30.17,SW,225,2.2,5.4,81,0.00,,,0.00,pywws,2013-08-08 01:52:00,
2013-08-07 21:57:00,72.5,66.3,30.17,SE,135,1.6,3.1,81,0.00,,,0.00,pywws,2013-08-08 01:57:00,
2013-08-07 22:03:00,72.5,66.3,30.17,ESE,112,0.7,2.2,81,0.00,,,0.00,pywws,2013-08-08 02:03:00,
2013-08-07 22:08:00,72.3,66.2,30.17,NE,45,1.6,3.1,81,0.00,,,0.00,pywws,2013-08-08 02:08:00,
2013-08-07 22:14:00,72.3,66.2,30.18,SE,135,0.7,2.2,81,0.00,,,0.00,pywws,2013-08-08 02:14:00,
2013-08-07 22:20:00,72.3,66.2,30.17,SE,135,1.6,2.2,81,0.00,,,0.00,pywws,2013-08-08 02:20:00,
2013-08-07 22:25:00,72.1,66.0,30.17,West,270,0.7,2.2,81,0.00,,,0.00,pywws,2013-08-08 02:25:00,
2013-08-07 22:31:00,72.1,66.0,30.18,NE,45,1.6,3.1,81,0.00,,,0.00,pywws,2013-08-08 02:31:00,
2013-08-07 22:36:00,72.1,66.0,30.18,NW,315,3.8,6.0,81,0.00,,,0.00,pywws,2013-08-08 02:36:00,
2013-08-07 22:42:00,72.1,66.0,30.18,East,90,2.2,3.8,81,0.00,,,0.00,pywws,2013-08-08 02:42:00,
2013-08-07 22:48:00,72.1,66.0,30.18,SE,135,1.6,3.8,81,0.00,,,0.00,pywws,2013-08-08 02:48:00,
2013-08-07 22:53:00,72.1,66.0,30.18,South,180,2.2,4.5,81,0.00,,,0.00,pywws,2013-08-08 02:53:00,
2013-08-07 22:59:00,72.1,66.0,30.17,SE,135,0.7,3.1,81,0.00,,,0.00,pywws,2013-08-08 02:59:00,
2013-08-07 23:04:00,72.1,66.0,30.18,East,90,0.7,1.6,81,0.00,,,0.00,pywws,2013-08-08 03:04:00,
2013-08-07 23:10:00,72.1,66.0,30.18,NE,45,1.6,3.8,81,0.00,,,0.00,pywws,2013-08-08 03:10:00,
2013-08-07 23:16:00,72.1,66.0,30.17,East,90,0.7,1.6,81,0.00,,,0.00,pywws,2013-08-08 03:16:00,
2013-08-07 23:21:00,72.1,66.3,30.17,SE,135,2.2,3.8,82,0.00,,,0.00,pywws,2013-08-08 03:21:00,
2013-08-07 23:27:00,72.0,66.2,30.17,East,90,1.6,2.2,82,0.00,,,0.00,pywws,2013-08-08 03:27:00,
2013-08-07 23:32:00,72.0,66.2,30.17,East,90,1.6,3.1,82,0.00,,,0.00,pywws,2013-08-08 03:32:00,
2013-08-07 23:38:00,72.0,66.2,30.16,SSW,202,0.0,1.6,82,0.00,,,0.00,pywws,2013-08-08 03:38:00,
2013-08-07 23:44:00,72.0,66.2,30.16,South,180,0.7,2.2,82,0.00,,,0.00,pywws,2013-08-08 03:44:00,
2013-08-07 23:49:00,72.0,66.2,30.16,South,180,0.7,1.6,82,0.00,,,0.00,pywws,2013-08-08 03:49:00,
2013-08-07 23:55:00,72.0,66.2,30.16,SW,225,0.0,1.6,82,0.00,,,0.00,pywws,2013-08-08 03:55:00,